createdAt,value
2023-02-23T00:00:44.792Z,55.87
2023-02-23T00:03:11.484Z,56.17
2023-02-23T00:05:37.911Z,55.80
2023-02-23T00:08:04.513Z,61.75
2023-02-23T00:10:30.921Z,67.75
2023-02-23T00:13:00.946Z,61.43
2023-02-23T00:15:28.344Z,60.88
2023-02-23T00:17:55.058Z,58.88
2023-02-23T00:20:21.947Z,60.22
2023-02-23T00:22:48.290Z,58.15
2023-02-23T00:25:14.739Z,56.93
2023-02-23T00:27:41.187Z,58.67
2023-02-23T00:30:08.392Z,53.58
2023-02-23T00:32:35.841Z,48.88
2023-02-23T00:35:02.299Z,52.03
2023-02-23T00:37:28.814Z,60.27
2023-02-23T00:39:56.448Z,60.63
2023-02-23T00:42:24.060Z,56.92
2023-02-23T00:44:50.820Z,55.55
2023-02-23T00:47:17.248Z,56.97
2023-02-23T00:49:43.753Z,56.70
2023-02-23T00:52:10.513Z,60.05
2023-02-23T00:54:36.914Z,54.45
2023-02-23T00:57:03.329Z,57.20
2023-02-23T00:59:29.689Z,61.22
2023-02-23T01:01:56.084Z,57.33
2023-02-23T01:04:22.439Z,54.97
2023-02-23T01:06:49.187Z,56.30
2023-02-23T01:09:17.119Z,55.00
2023-02-23T01:11:43.447Z,61.70
2023-02-23T01:14:10.851Z,61.17
2023-02-23T01:16:38.177Z,60.30
2023-02-23T01:19:05.676Z,49.33
2023-02-23T01:21:35.223Z,58.40
2023-02-23T01:24:02.058Z,56.65
2023-02-23T01:26:31.265Z,54.93
2023-02-23T01:29:00.041Z,51.90
2023-02-23T01:31:29.117Z,57.90
2023-02-23T01:34:00.949Z,57.00
2023-02-23T01:36:28.706Z,59.97
2023-02-23T01:38:56.156Z,50.47
2023-02-23T01:41:24.342Z,58.53
2023-02-23T01:44:27.643Z,50.00
2023-02-23T01:46:53.963Z,55.45
2023-02-23T01:49:24.800Z,54.17
2023-02-23T01:51:58.604Z,55.10
2023-02-23T01:54:30.325Z,56.30
2023-02-23T01:57:00.080Z,59.05
2023-02-23T01:59:31.835Z,57.20
2023-02-23T02:01:58.153Z,55.08
2023-02-23T02:04:24.490Z,58.87
2023-02-23T02:06:53.448Z,60.25
2023-02-23T02:09:23.752Z,57.15
2023-02-23T02:11:50.047Z,59.65
2023-02-23T02:14:27.394Z,57.38
2023-02-23T02:17:02.389Z,58.70
2023-02-23T02:19:37.694Z,55.65
2023-02-23T02:22:28.446Z,61.22
2023-02-23T02:25:20.528Z,54.92
2023-02-23T02:28:11.299Z,53.72
2023-02-23T02:30:52.806Z,56.90
2023-02-23T02:33:25.084Z,60.20
2023-02-23T02:36:29.987Z,61.25
2023-02-23T02:39:26.886Z,52.70
2023-02-23T02:42:08.833Z,58.20
2023-02-23T02:44:50.758Z,62.93
2023-02-23T02:47:26.734Z,57.80
2023-02-23T02:50:09.199Z,61.58
2023-02-23T02:52:42.996Z,63.97
2023-02-23T02:55:32.051Z,59.10
2023-02-23T02:57:59.420Z,53.50
2023-02-23T03:00:34.852Z,58.92
2023-02-23T03:03:01.209Z,57.35
2023-02-23T03:05:44.997Z,59.65
2023-02-23T03:08:28.664Z,58.10
2023-02-23T03:11:06.740Z,58.40
2023-02-23T03:14:16.594Z,48.60
2023-02-23T03:16:45.625Z,51.38
2023-02-23T03:19:22.564Z,57.05
2023-02-23T03:22:00.430Z,52.90
2023-02-23T03:24:29.795Z,55.20
2023-02-23T03:27:04.546Z,58.30
2023-02-23T03:29:49.511Z,57.60
2023-02-23T03:32:26.611Z,54.67
2023-02-23T03:35:06.451Z,55.08
2023-02-23T03:37:49.707Z,59.90
2023-02-23T03:40:21.821Z,49.08
2023-02-23T03:42:51.801Z,57.35
2023-02-23T03:45:21.133Z,57.55
2023-02-23T03:47:48.945Z,56.40
2023-02-23T03:50:29.086Z,53.73
2023-02-23T03:53:00.008Z,56.85
2023-02-23T03:55:32.277Z,54.88
2023-02-23T03:58:00.466Z,54.05
2023-02-23T04:00:42.831Z,54.65
2023-02-23T04:03:12.450Z,53.03
2023-02-23T04:05:41.561Z,50.63
2023-02-23T04:08:11.886Z,59.53
2023-02-23T04:10:50.016Z,55.58
2023-02-23T04:13:24.758Z,58.67
2023-02-23T04:15:53.193Z,58.90
2023-02-23T04:18:28.514Z,58.13
2023-02-23T04:20:56.830Z,56.28
2023-02-23T04:23:24.042Z,61.25
2023-02-23T04:25:51.891Z,55.25
2023-02-23T04:28:19.126Z,51.73
2023-02-23T04:30:45.909Z,57.50
2023-02-23T04:33:12.384Z,61.40
2023-02-23T04:35:39.991Z,52.38
2023-02-23T04:38:06.659Z,54.45
2023-02-23T04:40:33.146Z,58.30
2023-02-23T04:43:02.566Z,58.67
2023-02-23T04:45:29.059Z,52.75
2023-02-23T04:47:55.342Z,58.08
2023-02-23T04:50:21.975Z,57.97
2023-02-23T04:52:48.574Z,50.50
2023-02-23T04:55:20.796Z,53.95
2023-02-23T04:57:47.433Z,52.35
2023-02-23T05:00:14.944Z,53.53
2023-02-23T05:02:41.428Z,56.78
2023-02-23T05:05:09.006Z,56.40
2023-02-23T05:07:36.638Z,56.95
2023-02-23T05:10:04.094Z,53.88
2023-02-23T05:12:30.421Z,51.75
2023-02-23T05:14:56.755Z,61.20
2023-02-23T05:17:23.267Z,54.13
2023-02-23T05:19:49.544Z,54.10
2023-02-23T05:22:15.914Z,54.22
2023-02-23T05:24:42.655Z,57.08
2023-02-23T05:27:09.821Z,56.03
2023-02-23T05:29:36.269Z,57.43
2023-02-23T05:32:02.748Z,51.28
2023-02-23T05:34:29.359Z,53.00
2023-02-23T05:36:55.772Z,59.35
2023-02-23T05:39:22.259Z,58.35
2023-02-23T05:41:48.670Z,52.10
2023-02-23T05:44:15.197Z,57.13
2023-02-23T05:46:41.507Z,59.97
2023-02-23T05:49:07.818Z,55.63
2023-02-23T05:51:34.678Z,53.15
2023-02-23T05:54:01.081Z,55.30
2023-02-23T05:56:27.450Z,56.33
2023-02-23T05:58:56.743Z,59.78
2023-02-23T06:01:24.515Z,59.78
2023-02-23T06:03:51.571Z,59.22
2023-02-23T06:06:18.706Z,55.13
2023-02-23T06:08:45.339Z,53.28
2023-02-23T06:11:11.814Z,54.80
2023-02-23T06:13:38.178Z,52.72
2023-02-23T06:16:05.039Z,54.70
2023-02-23T06:18:31.461Z,57.97
2023-02-23T06:21:01.896Z,55.28
2023-02-23T06:23:29.024Z,53.08
2023-02-23T06:25:55.457Z,54.55
2023-02-23T06:28:22.318Z,56.75
2023-02-23T06:30:52.493Z,53.70
2023-02-23T06:33:19.052Z,59.05
2023-02-23T06:35:45.417Z,52.08
2023-02-23T06:38:12.169Z,54.88
2023-02-23T06:40:40.291Z,55.95
2023-02-23T06:43:06.647Z,53.33
2023-02-23T06:45:33.311Z,60.10
2023-02-23T06:48:00.326Z,57.53
2023-02-23T06:50:27.403Z,56.28
2023-02-23T06:52:53.862Z,51.60
2023-02-23T06:55:20.162Z,54.53
2023-02-23T06:57:49.627Z,55.20
2023-02-23T07:00:16.325Z,53.75
2023-02-23T07:02:42.863Z,49.13
2023-02-23T07:05:09.715Z,54.10
2023-02-23T07:07:36.426Z,54.53
2023-02-23T07:10:03.552Z,55.90
2023-02-23T07:12:30.266Z,55.75
2023-02-23T07:14:56.692Z,52.15
2023-02-23T07:17:23.633Z,53.35
2023-02-23T07:19:49.943Z,53.97
2023-02-23T07:22:16.213Z,57.90
2023-02-23T07:24:42.613Z,54.17
2023-02-23T07:27:08.927Z,54.55
2023-02-23T07:29:35.256Z,54.95
2023-02-23T07:32:01.781Z,52.10
2023-02-23T07:34:28.194Z,57.40
2023-02-23T07:36:55.536Z,56.63
2023-02-23T07:39:21.841Z,58.58
2023-02-23T07:41:48.095Z,57.90
2023-02-23T07:44:14.377Z,53.23
2023-02-23T07:46:41.750Z,56.45
2023-02-23T07:49:08.049Z,57.33
2023-02-23T07:51:34.423Z,53.40
2023-02-23T07:54:04.772Z,54.15
2023-02-23T07:56:31.618Z,54.17
2023-02-23T07:58:58.127Z,60.35
2023-02-23T08:01:24.478Z,59.35
2023-02-23T08:03:50.828Z,51.42
2023-02-23T08:06:18.614Z,50.35
2023-02-23T08:08:45.238Z,53.33
2023-02-23T08:11:11.808Z,57.67
2023-02-23T08:13:38.446Z,57.45
2023-02-23T08:16:05.060Z,51.53
2023-02-23T08:18:32.072Z,53.15
2023-02-23T08:20:59.665Z,56.83
2023-02-23T08:23:26.863Z,51.50
2023-02-23T08:25:54.863Z,53.67
2023-02-23T08:28:21.461Z,49.03
2023-02-23T08:30:47.933Z,47.28
2023-02-23T08:33:14.305Z,47.77
2023-02-23T08:35:40.694Z,47.38
2023-02-23T08:38:07.060Z,50.63
2023-02-23T08:40:33.449Z,52.53
2023-02-23T08:42:59.731Z,46.45
2023-02-23T08:45:26.098Z,46.43
2023-02-23T08:47:54.469Z,44.85
2023-02-23T08:50:21.255Z,46.08
2023-02-23T08:52:47.646Z,45.13
2023-02-23T08:55:14.180Z,40.28
2023-02-23T08:57:40.541Z,40.00
2023-02-23T09:00:07.383Z,40.92
2023-02-23T09:02:34.038Z,38.53
2023-02-23T09:05:00.438Z,41.42
2023-02-23T09:07:26.779Z,34.45
2023-02-23T09:09:57.544Z,42.07
2023-02-23T09:12:23.914Z,34.83
2023-02-23T09:14:50.279Z,38.65
2023-02-23T09:17:18.119Z,41.47
2023-02-23T09:19:44.529Z,36.47
2023-02-23T09:22:11.093Z,41.07
2023-02-23T09:24:37.442Z,41.10
2023-02-23T09:27:04.437Z,40.33
2023-02-23T09:29:30.713Z,40.42
2023-02-23T09:31:57.019Z,38.60
2023-02-23T09:34:23.974Z,40.10
2023-02-23T09:36:50.284Z,44.53
2023-02-23T09:39:17.180Z,40.42
2023-02-23T09:42:22.569Z,39.97
2023-02-23T09:45:18.593Z,41.30
2023-02-23T09:48:05.054Z,39.47
2023-02-23T09:50:42.212Z,39.58
2023-02-23T09:53:18.639Z,45.40
2023-02-23T09:55:45.647Z,36.50
2023-02-23T09:58:25.456Z,43.55
2023-02-23T10:01:01.701Z,46.87
2023-02-23T10:03:34.672Z,40.03
2023-02-23T10:06:07.283Z,42.03
2023-02-23T10:08:58.988Z,39.25
2023-02-23T10:11:38.768Z,43.72
2023-02-23T10:14:40.098Z,37.63
2023-02-23T10:17:38.023Z,49.38
2023-02-23T10:20:32.808Z,42.58
2023-02-23T10:23:04.602Z,41.03
2023-02-23T10:25:37.169Z,41.75
2023-02-23T10:28:03.645Z,43.20
2023-02-23T10:30:33.707Z,48.53
2023-02-23T10:33:21.361Z,39.42
2023-02-23T10:35:47.946Z,43.13
2023-02-23T10:38:16.692Z,42.33
2023-02-23T10:40:46.400Z,39.63
2023-02-23T10:43:13.467Z,38.55
2023-02-23T10:45:46.714Z,36.83
2023-02-23T10:48:25.572Z,35.47
2023-02-23T10:50:57.675Z,34.83
2023-02-23T10:53:26.702Z,37.80
2023-02-23T10:56:11.338Z,33.88
2023-02-23T10:58:44.583Z,30.15
2023-02-23T11:01:11.692Z,33.50
2023-02-23T11:03:42.511Z,31.65
2023-02-23T11:06:36.966Z,29.37
2023-02-23T11:09:26.945Z,34.00
2023-02-23T11:11:57.397Z,31.30
2023-02-23T11:14:26.507Z,33.60
2023-02-23T11:16:55.204Z,32.75
2023-02-23T11:19:43.124Z,31.10
2023-02-23T11:22:19.990Z,31.95
2023-02-23T11:24:46.445Z,33.90
2023-02-23T11:27:27.079Z,33.67
2023-02-23T11:29:56.692Z,36.08
2023-02-23T11:32:34.293Z,29.40
2023-02-23T11:35:26.755Z,36.63
2023-02-23T11:37:53.675Z,42.60
2023-02-23T11:40:22.869Z,34.30
2023-02-23T11:42:57.592Z,33.13
2023-02-23T11:45:29.886Z,34.75
2023-02-23T11:47:57.930Z,37.72
2023-02-23T11:50:36.152Z,32.47
2023-02-23T11:53:17.069Z,36.15
2023-02-23T11:55:52.612Z,32.63
2023-02-23T11:58:35.430Z,33.55
2023-02-23T12:01:05.772Z,25.95
2023-02-23T12:03:33.902Z,30.30
2023-02-23T12:06:00.349Z,32.25
2023-02-23T12:08:33.161Z,35.83
2023-02-23T12:11:03.850Z,35.65
2023-02-23T12:13:45.498Z,35.40
2023-02-23T12:16:14.583Z,35.30
2023-02-23T12:19:02.639Z,32.08
2023-02-23T12:21:56.464Z,32.75
2023-02-23T12:24:39.228Z,33.75
2023-02-23T12:27:31.090Z,32.08
2023-02-23T12:30:00.192Z,31.90
2023-02-23T12:32:48.274Z,32.25
2023-02-23T12:35:23.551Z,34.50
2023-02-23T12:38:22.005Z,35.63
2023-02-23T12:40:51.014Z,34.55
2023-02-23T12:43:26.917Z,36.80
2023-02-23T12:46:02.482Z,34.22
2023-02-23T12:48:45.970Z,34.58
2023-02-23T12:51:31.300Z,31.08
2023-02-23T12:53:57.609Z,33.40
2023-02-23T12:56:33.504Z,32.60
2023-02-23T12:59:18.155Z,32.05
2023-02-23T13:01:49.254Z,27.98
2023-02-23T13:04:43.970Z,27.52
2023-02-23T13:07:24.451Z,28.02
2023-02-23T13:10:05.774Z,29.50
2023-02-23T13:12:38.085Z,26.40
2023-02-23T13:15:35.615Z,25.92
2023-02-23T13:18:32.590Z,18.90
2023-02-23T13:21:24.895Z,27.70
2023-02-23T13:24:01.212Z,24.27
2023-02-23T13:26:39.097Z,27.95
2023-02-23T13:29:20.123Z,23.35
2023-02-23T13:31:46.791Z,29.05
2023-02-23T13:34:21.355Z,22.38
2023-02-23T13:36:48.883Z,27.23
2023-02-23T13:39:40.001Z,23.90
2023-02-23T13:42:18.283Z,23.27
2023-02-23T13:44:52.828Z,20.88
2023-02-23T13:47:47.740Z,22.50
2023-02-23T13:50:28.521Z,20.87
2023-02-23T13:52:55.371Z,19.35
2023-02-23T13:55:34.686Z,19.48
2023-02-23T13:58:13.596Z,22.63
2023-02-23T14:00:39.978Z,20.88
2023-02-23T14:03:08.046Z,25.77
2023-02-23T14:05:44.784Z,22.92
2023-02-23T14:08:34.171Z,22.45
2023-02-23T14:11:01.451Z,31.98
2023-02-23T14:13:31.846Z,32.95
2023-02-23T14:16:09.140Z,34.60
2023-02-23T14:18:49.428Z,34.92
2023-02-23T14:21:15.728Z,36.97
2023-02-23T14:23:42.034Z,32.53
2023-02-23T14:26:17.713Z,33.42
2023-02-23T14:29:20.298Z,40.23
2023-02-23T14:32:12.991Z,44.95
2023-02-23T14:34:56.186Z,42.72
2023-02-23T14:37:35.606Z,43.67
2023-02-23T14:40:18.625Z,43.15
2023-02-23T14:42:56.734Z,26.33
2023-02-23T14:45:25.823Z,20.70
2023-02-23T14:47:55.236Z,22.35
2023-02-23T14:50:30.814Z,16.50
2023-02-23T14:52:58.191Z,17.33
2023-02-23T14:55:29.652Z,29.17
2023-02-23T14:57:57.064Z,17.33
2023-02-23T15:00:26.999Z,19.65
2023-02-23T15:03:02.433Z,18.30
2023-02-23T15:05:50.338Z,17.10
2023-02-23T15:08:21.297Z,16.67
2023-02-23T15:10:51.514Z,19.70
2023-02-23T15:13:28.800Z,17.55
2023-02-23T15:15:57.454Z,30.23
2023-02-23T15:18:40.418Z,20.92
2023-02-23T15:21:13.679Z,27.87
2023-02-23T15:23:40.141Z,27.08
2023-02-23T15:26:37.481Z,31.00
2023-02-23T15:29:17.259Z,31.13
2023-02-23T15:31:46.321Z,22.05
2023-02-23T15:34:12.821Z,24.93
2023-02-23T15:36:39.710Z,20.35
2023-02-23T15:39:11.585Z,23.77
2023-02-23T15:41:37.957Z,18.88
2023-02-23T15:44:20.176Z,17.75
2023-02-23T15:46:52.739Z,14.70
2023-02-23T15:49:19.334Z,16.60
2023-02-23T15:51:49.652Z,17.45
2023-02-23T15:54:34.083Z,22.23
2023-02-23T15:57:07.728Z,18.05
2023-02-23T15:59:36.752Z,19.90
2023-02-23T16:02:12.480Z,23.23
2023-02-23T16:04:40.163Z,16.48
2023-02-23T16:07:27.361Z,17.05
2023-02-23T16:10:04.021Z,19.27
2023-02-23T16:12:37.896Z,22.90
2023-02-23T16:15:17.677Z,17.85
2023-02-23T16:17:47.414Z,24.35
2023-02-23T16:20:16.434Z,18.73
2023-02-23T16:22:45.090Z,18.08
2023-02-23T16:25:17.871Z,21.50
2023-02-23T16:27:46.928Z,21.23
2023-02-23T16:30:16.280Z,23.60
2023-02-23T16:32:44.265Z,21.13
2023-02-23T16:35:18.083Z,23.27
2023-02-23T16:38:04.356Z,25.13
2023-02-23T16:40:30.789Z,30.50
2023-02-23T16:42:58.313Z,26.08
2023-02-23T16:45:25.610Z,19.52
2023-02-23T16:47:52.662Z,14.75
2023-02-23T16:50:21.738Z,12.80
2023-02-23T16:52:50.935Z,24.20
2023-02-23T16:55:18.958Z,13.30
2023-02-23T16:57:48.147Z,17.05
2023-02-23T17:00:37.475Z,17.05
2023-02-23T17:03:04.104Z,22.13
2023-02-23T17:05:30.556Z,14.48
2023-02-23T17:07:57.971Z,23.42
2023-02-23T17:10:29.920Z,16.38
2023-02-23T17:13:08.232Z,12.70
2023-02-23T17:15:36.991Z,21.80
2023-02-23T17:18:04.127Z,24.50
2023-02-23T17:20:30.781Z,20.77
2023-02-23T17:22:59.496Z,13.52
2023-02-23T17:25:26.539Z,17.80
2023-02-23T17:27:54.088Z,16.40
2023-02-23T17:30:21.168Z,12.30
2023-02-23T17:32:48.387Z,17.38
2023-02-23T17:35:15.183Z,12.32
2023-02-23T17:37:41.574Z,10.35
2023-02-23T17:40:09.757Z,12.13
2023-02-23T17:42:36.113Z,14.98
2023-02-23T17:45:06.136Z,15.82
2023-02-23T17:47:33.988Z,13.27
2023-02-23T17:50:00.895Z,13.57
2023-02-23T17:52:28.501Z,13.03
2023-02-23T17:54:55.587Z,14.60
2023-02-23T17:57:23.276Z,15.50
2023-02-23T17:59:50.200Z,21.05
2023-02-23T18:05:27.762Z,16.93
2023-02-23T18:07:58.175Z,18.45
2023-02-23T18:10:24.603Z,9.88
2023-02-23T18:12:52.375Z,13.00
2023-02-23T18:15:18.818Z,11.25
2023-02-23T18:17:45.202Z,12.90
2023-02-23T18:20:12.449Z,13.40
2023-02-23T18:22:38.901Z,16.80
2023-02-23T18:25:05.772Z,10.35
2023-02-23T18:27:32.077Z,8.57
2023-02-23T18:29:58.599Z,13.80
2023-02-23T18:32:25.249Z,9.30
2023-02-23T18:34:51.760Z,12.10
2023-02-23T18:37:18.136Z,13.18
2023-02-23T18:39:44.397Z,23.45
2023-02-23T18:42:10.708Z,11.97
2023-02-23T18:44:37.035Z,17.33
2023-02-23T18:47:03.363Z,14.30
2023-02-23T18:49:29.743Z,10.25
2023-02-23T18:51:56.102Z,10.48
2023-02-23T18:54:22.514Z,8.10
2023-02-23T18:56:48.940Z,13.18
2023-02-23T18:59:15.910Z,12.25
2023-02-23T19:01:42.617Z,11.10
2023-02-23T19:04:09.105Z,13.27
2023-02-23T19:06:35.682Z,9.83
2023-02-23T19:09:02.207Z,13.25
2023-02-23T19:11:34.086Z,13.13
2023-02-23T19:14:03.312Z,13.13
2023-02-23T19:16:31.357Z,16.15
2023-02-23T19:18:59.416Z,13.60
2023-02-23T19:21:25.989Z,9.98
2023-02-23T19:23:52.764Z,9.57
2023-02-23T19:26:20.143Z,10.25
2023-02-23T19:28:46.800Z,13.13
2023-02-23T19:31:16.258Z,15.20
2023-02-23T19:33:43.295Z,19.88
2023-02-23T19:36:12.854Z,11.68
2023-02-23T19:38:40.078Z,12.82
2023-02-23T19:41:07.772Z,10.45
2023-02-23T19:43:34.344Z,14.90
2023-02-23T19:46:04.957Z,13.52
2023-02-23T19:48:31.515Z,14.55
2023-02-23T19:50:57.867Z,15.50
2023-02-23T19:53:24.274Z,15.93
2023-02-23T19:56:16.243Z,15.37
2023-02-23T19:58:43.532Z,16.45
2023-02-23T20:01:12.615Z,14.30
2023-02-23T20:03:39.776Z,13.45
2023-02-23T20:06:07.104Z,13.23
2023-02-23T20:08:33.914Z,10.97
2023-02-23T20:11:00.295Z,10.88
2023-02-23T20:13:26.927Z,14.20
2023-02-23T20:16:01.590Z,15.63
2023-02-23T20:18:28.020Z,16.58
2023-02-23T20:20:54.578Z,12.10
2023-02-23T20:23:21.471Z,10.45
2023-02-23T20:25:48.215Z,15.10
2023-02-23T20:28:15.936Z,14.35
2023-02-23T20:30:46.599Z,13.38
2023-02-23T20:33:13.664Z,15.03
2023-02-23T20:35:40.499Z,12.55
2023-02-23T20:38:06.875Z,11.07
2023-02-23T20:40:33.664Z,14.32
2023-02-23T20:43:00.131Z,11.30
2023-02-23T20:45:26.563Z,11.63
2023-02-23T20:47:52.950Z,12.65
2023-02-23T20:50:21.765Z,15.30
2023-02-23T20:52:49.091Z,10.48
2023-02-23T20:55:15.819Z,12.65
2023-02-23T20:57:42.223Z,13.67
2023-02-23T21:00:09.558Z,17.73
2023-02-23T21:02:36.968Z,10.65
2023-02-23T21:05:04.632Z,11.80
2023-02-23T21:07:31.354Z,8.73
2023-02-23T21:09:57.689Z,16.37
2023-02-23T21:12:24.111Z,11.35
2023-02-23T21:14:50.700Z,12.25
2023-02-23T21:17:17.137Z,12.30
2023-02-23T21:19:43.477Z,8.68
2023-02-23T21:22:09.940Z,10.57
2023-02-23T21:24:38.503Z,13.38
2023-02-23T21:27:04.882Z,11.18
2023-02-23T21:29:31.293Z,10.65
2023-02-23T21:31:57.708Z,13.73
2023-02-23T21:34:24.217Z,11.57
2023-02-23T21:36:50.564Z,7.35
2023-02-23T21:39:17.207Z,11.43
2023-02-23T21:41:43.537Z,10.57
2023-02-23T21:44:11.323Z,12.85
2023-02-23T21:46:37.753Z,13.53
2023-02-23T21:49:04.260Z,8.55
2023-02-23T21:51:30.572Z,8.35
2023-02-23T21:53:56.972Z,10.05
2023-02-23T21:56:23.389Z,7.47
2023-02-23T21:58:54.710Z,11.00
2023-02-23T22:01:25.140Z,8.27
2023-02-23T22:03:51.643Z,8.23
2023-02-23T22:06:20.065Z,11.05
2023-02-23T22:08:47.592Z,12.40
2023-02-23T22:11:16.601Z,12.73
2023-02-23T22:13:51.421Z,5.65
2023-02-23T22:16:19.241Z,10.48
2023-02-23T22:18:45.986Z,9.80
2023-02-23T22:21:12.714Z,11.55
2023-02-23T22:23:40.452Z,10.57
2023-02-23T22:26:07.541Z,14.80
2023-02-23T22:28:34.409Z,8.75
2023-02-23T22:31:09.571Z,10.63
2023-02-23T22:33:37.359Z,8.63
2023-02-23T22:36:06.053Z,7.80
2023-02-23T22:38:33.734Z,9.65
2023-02-23T22:41:00.221Z,9.48
2023-02-23T22:43:28.024Z,8.82
2023-02-23T22:45:55.755Z,8.60
2023-02-23T22:48:23.178Z,6.53
2023-02-23T22:50:50.555Z,6.30
2023-02-23T22:53:17.802Z,9.60
2023-02-23T22:55:48.709Z,9.07
2023-02-23T22:58:16.054Z,6.38
2023-02-23T23:00:42.511Z,5.60
2023-02-23T23:03:08.909Z,8.95
2023-02-23T23:05:35.348Z,7.50
2023-02-23T23:08:01.784Z,9.00
2023-02-23T23:10:28.199Z,14.48
2023-02-23T23:12:54.638Z,6.93
2023-02-23T23:15:23.013Z,8.18
2023-02-23T23:17:49.925Z,7.60
2023-02-23T23:20:19.697Z,5.38
2023-02-23T23:22:46.063Z,8.43
2023-02-23T23:25:12.475Z,9.60
2023-02-23T23:27:38.919Z,8.60
2023-02-23T23:30:05.682Z,9.00
2023-02-23T23:32:32.232Z,12.57
2023-02-23T23:34:58.880Z,10.32
2023-02-23T23:37:25.581Z,6.13
2023-02-23T23:39:52.006Z,6.80
2023-02-23T23:42:18.916Z,7.68
2023-02-23T23:44:45.358Z,8.90
2023-02-23T23:47:11.757Z,10.90
2023-02-23T23:49:38.358Z,8.87
2023-02-23T23:52:05.294Z,6.93
2023-02-23T23:54:35.054Z,7.97
2023-02-23T23:57:01.623Z,7.30
2023-02-23T23:59:28.415Z,9.10
